createdAt,value
2017-11-12T00:01:34.288Z,19.23
2017-11-12T00:04:08.240Z,19.42
2017-11-12T00:06:38.481Z,18.92
2017-11-12T00:09:13.363Z,20.17
2017-11-12T00:11:45.741Z,20.33
2017-11-12T00:14:15.109Z,20.35
2017-11-12T00:16:43.819Z,19.92
2017-11-12T00:19:14.744Z,21.10
2017-11-12T00:21:43.869Z,21.35
2017-11-12T00:24:12.642Z,20.25
2017-11-12T00:26:40.477Z,19.30
2017-11-12T00:29:07.911Z,22.37
2017-11-12T00:31:37.212Z,18.23
2017-11-12T00:34:07.662Z,19.92
2017-11-12T00:36:36.515Z,20.73
2017-11-12T00:39:06.073Z,19.23
2017-11-12T00:41:36.102Z,21.77
2017-11-12T00:44:08.087Z,20.80
2017-11-12T00:46:38.561Z,21.50
2017-11-12T00:49:12.689Z,24.00
2017-11-12T00:54:25.359Z,21.33
2017-11-12T00:56:56.544Z,21.85
2017-11-12T00:59:35.066Z,19.27
2017-11-12T01:02:05.966Z,20.85
2017-11-12T01:04:33.653Z,20.23
2017-11-12T01:07:00.769Z,17.95
2017-11-12T01:09:31.724Z,19.42
2017-11-12T01:12:03.031Z,20.92
2017-11-12T01:14:35.612Z,20.15
2017-11-12T01:17:06.862Z,18.20
2017-11-12T01:19:35.060Z,19.05
2017-11-12T01:22:03.265Z,17.50
2017-11-12T01:24:31.410Z,18.37
2017-11-12T01:27:00.194Z,18.55
2017-11-12T01:29:28.786Z,20.23
2017-11-12T01:31:59.849Z,20.58
2017-11-12T01:34:29.294Z,21.65
2017-11-12T01:36:56.581Z,21.85
2017-11-12T01:39:23.290Z,20.50
2017-11-12T01:41:52.816Z,21.92
2017-11-12T01:44:22.275Z,21.60
2017-11-12T01:46:52.863Z,23.83
2017-11-12T01:49:29.160Z,21.98
2017-11-12T01:51:57.430Z,22.75
2017-11-12T01:54:24.783Z,24.05
2017-11-12T01:56:52.839Z,24.27
2017-11-12T01:59:21.155Z,23.50
2017-11-12T02:01:50.311Z,25.73
2017-11-12T02:04:18.763Z,23.77
2017-11-12T02:06:52.131Z,26.15
2017-11-12T02:09:22.241Z,26.80
2017-11-12T02:11:51.785Z,25.35
2017-11-12T02:14:19.635Z,25.95
2017-11-12T02:19:34.672Z,27.58
2017-11-12T02:22:06.088Z,25.30
2017-11-12T02:24:33.027Z,27.48
2017-11-12T02:27:00.506Z,25.52
2017-11-12T02:29:27.926Z,24.45
2017-11-12T02:32:12.521Z,26.23
2017-11-12T02:34:49.941Z,28.60
2017-11-12T02:37:20.879Z,26.85
2017-11-12T02:39:47.703Z,26.52
2017-11-12T02:42:18.142Z,25.37
2017-11-12T02:44:50.030Z,26.75
2017-11-12T02:47:20.810Z,27.80
2017-11-12T02:49:56.074Z,26.37
2017-11-12T02:52:24.125Z,28.60
2017-11-12T02:57:36.268Z,25.85
2017-11-12T03:00:05.536Z,23.50
2017-11-12T03:02:37.633Z,23.70
2017-11-12T03:05:09.541Z,25.90
2017-11-12T03:07:38.719Z,24.73
2017-11-12T03:10:06.104Z,24.58
2017-11-12T03:12:33.612Z,27.20
2017-11-12T03:15:05.741Z,27.45
2017-11-12T03:17:39.768Z,24.90
2017-11-12T03:20:13.719Z,25.92
2017-11-12T03:22:49.141Z,25.30
2017-11-12T03:25:16.709Z,25.37
2017-11-12T03:27:44.449Z,25.77
2017-11-12T03:30:10.797Z,25.75
2017-11-12T03:32:37.180Z,24.55
2017-11-12T03:35:03.534Z,24.63
2017-11-12T03:37:30.210Z,24.67
2017-11-12T03:39:56.568Z,23.35
2017-11-12T03:42:23.471Z,26.33
2017-11-12T03:44:49.856Z,25.80
2017-11-12T03:47:16.206Z,24.12
2017-11-12T03:49:42.533Z,24.80
2017-11-12T03:52:08.901Z,25.05
2017-11-12T03:54:53.090Z,27.75
2017-11-12T03:57:22.895Z,23.83
2017-11-12T03:59:49.259Z,24.10
2017-11-12T04:02:15.668Z,25.15
2017-11-12T04:04:42.004Z,23.73
2017-11-12T04:07:08.386Z,25.60
2017-11-12T04:09:34.774Z,25.40
2017-11-12T04:12:01.137Z,25.20
2017-11-12T04:14:27.635Z,28.92
2017-11-12T04:19:41.176Z,24.70
2017-11-12T04:22:07.322Z,25.95
2017-11-12T04:24:42.341Z,23.62
2017-11-12T04:27:08.484Z,24.48
2017-11-12T04:29:34.609Z,26.90
2017-11-12T04:32:00.779Z,24.20
2017-11-12T04:34:27.657Z,25.00
2017-11-12T04:36:54.521Z,26.80
2017-11-12T04:39:21.419Z,25.25
2017-11-12T04:41:47.559Z,25.40
2017-11-12T04:44:13.774Z,27.30
2017-11-12T04:46:39.913Z,26.65
2017-11-12T04:49:06.781Z,25.27
2017-11-12T04:51:33.651Z,26.80
2017-11-12T04:53:59.770Z,28.20
2017-11-12T04:56:26.654Z,25.85
2017-11-12T04:58:54.585Z,28.35
2017-11-12T05:01:20.710Z,27.40
2017-11-12T05:03:46.869Z,27.23
2017-11-12T05:06:13.013Z,27.98
2017-11-12T05:08:39.153Z,26.70
2017-11-12T05:11:05.294Z,27.08
2017-11-12T05:13:31.430Z,27.90
2017-11-12T05:15:57.551Z,27.77
2017-11-12T05:18:23.661Z,29.30
2017-11-12T05:20:49.771Z,27.48
2017-11-12T05:23:15.925Z,26.65
2017-11-12T05:25:52.233Z,27.20
2017-11-12T05:28:22.494Z,30.05
2017-11-12T05:30:48.606Z,27.15
2017-11-12T05:33:14.729Z,26.65
2017-11-12T05:35:40.862Z,29.30
2017-11-12T05:38:07.808Z,26.85
2017-11-12T05:40:33.930Z,27.35
2017-11-12T05:43:00.055Z,25.85
2017-11-12T05:45:26.187Z,26.58
2017-11-12T05:47:52.328Z,26.60
2017-11-12T05:50:18.448Z,28.12
2017-11-12T05:52:44.573Z,28.25
2017-11-12T05:55:10.705Z,26.90
2017-11-12T05:57:37.570Z,25.58
2017-11-12T06:00:03.705Z,26.92
2017-11-12T06:02:29.814Z,26.50
2017-11-12T06:04:56.685Z,27.37
2017-11-12T06:07:23.566Z,26.73
2017-11-12T06:09:49.723Z,24.58
2017-11-12T06:12:15.867Z,26.42
2017-11-12T06:14:44.131Z,29.35
2017-11-12T06:17:10.971Z,26.62
2017-11-12T06:19:37.848Z,28.10
2017-11-12T06:22:04.028Z,26.92
2017-11-12T06:24:30.166Z,25.98
2017-11-12T06:26:56.340Z,24.85
2017-11-12T06:29:23.254Z,25.55
2017-11-12T06:31:49.372Z,25.30
2017-11-12T06:34:15.517Z,24.25
2017-11-12T06:36:41.645Z,26.30
2017-11-12T06:39:07.812Z,24.42
2017-11-12T06:41:33.930Z,28.00
2017-11-12T06:44:00.086Z,25.37
2017-11-12T06:46:26.203Z,24.95
2017-11-12T06:48:59.805Z,24.15
2017-11-12T06:51:26.661Z,23.42
2017-11-12T06:53:53.509Z,25.33
2017-11-12T06:56:19.653Z,24.90
2017-11-12T06:59:00.154Z,27.50
2017-11-12T07:01:39.590Z,27.52
2017-11-12T07:04:05.936Z,25.50
2017-11-12T07:06:32.251Z,26.02
2017-11-12T07:08:58.565Z,27.02
2017-11-12T07:11:25.724Z,27.23
2017-11-12T07:13:52.069Z,28.58
2017-11-12T07:16:18.424Z,26.58
2017-11-12T07:18:58.403Z,27.75
2017-11-12T07:21:28.592Z,27.02
2017-11-12T07:23:54.930Z,27.15
2017-11-12T07:26:22.007Z,24.48
2017-11-12T07:28:48.342Z,25.33
2017-11-12T07:31:32.091Z,25.85
2017-11-12T07:33:59.631Z,25.35
2017-11-12T07:36:27.245Z,26.58
2017-11-12T07:38:53.562Z,25.90
2017-11-12T07:41:19.853Z,26.83
2017-11-12T07:43:46.929Z,27.27
2017-11-12T07:46:14.000Z,27.17
2017-11-12T07:48:40.337Z,26.35
2017-11-12T07:51:06.954Z,26.52
2017-11-12T07:53:34.033Z,26.85
2017-11-12T07:56:00.670Z,27.62
2017-11-12T07:58:26.989Z,26.90
2017-11-12T08:00:53.326Z,26.67
2017-11-12T08:03:19.669Z,26.23
2017-11-12T08:05:46.117Z,25.17
2017-11-12T08:08:14.453Z,25.73
2017-11-12T08:10:40.869Z,25.48
2017-11-12T08:13:07.364Z,25.95
2017-11-12T08:15:33.726Z,26.05
2017-11-12T08:18:00.477Z,25.50
2017-11-12T08:20:26.835Z,24.67
2017-11-12T08:22:53.275Z,25.30
2017-11-12T08:25:19.697Z,29.50
2017-11-12T08:27:56.209Z,27.10
2017-11-12T08:30:23.990Z,25.73
2017-11-12T08:32:50.382Z,26.77
2017-11-12T08:35:16.727Z,28.15
2017-11-12T08:37:43.115Z,27.20
2017-11-12T08:40:09.579Z,24.45
2017-11-12T08:42:35.947Z,25.35
2017-11-12T08:45:14.428Z,24.02
2017-11-12T08:47:45.706Z,21.98
2017-11-12T08:50:12.086Z,18.33
2017-11-12T08:52:38.462Z,18.75
2017-11-12T08:55:04.777Z,21.23
2017-11-12T08:57:31.139Z,19.12
2017-11-12T08:59:57.496Z,20.75
2017-11-12T09:02:23.838Z,21.92
2017-11-12T09:04:50.173Z,22.95
2017-11-12T09:07:17.377Z,22.48
2017-11-12T09:09:43.709Z,21.15
2017-11-12T09:12:10.077Z,23.70
2017-11-12T09:14:36.512Z,21.92
2017-11-12T09:17:02.844Z,22.02
2017-11-12T09:19:30.567Z,19.40
2017-11-12T09:21:56.993Z,15.07
2017-11-12T09:24:23.387Z,13.88
2017-11-12T09:26:49.728Z,13.13
2017-11-12T09:29:27.073Z,12.18
2017-11-12T09:31:53.222Z,10.52
2017-11-12T09:34:19.338Z,8.20
2017-11-12T09:36:46.207Z,8.68
2017-11-12T09:39:25.574Z,8.07
2017-11-12T09:41:53.318Z,8.52
2017-11-12T09:44:20.191Z,8.18
2017-11-12T09:46:47.095Z,8.68
2017-11-12T09:49:13.319Z,9.00
2017-11-12T09:51:39.468Z,8.82
2017-11-12T09:54:05.595Z,8.85
2017-11-12T09:56:31.709Z,8.82
2017-11-12T09:58:58.601Z,8.10
2017-11-12T10:01:24.784Z,6.53
2017-11-12T10:03:50.884Z,5.55
2017-11-12T10:06:17.005Z,5.90
2017-11-12T10:08:43.855Z,5.18
2017-11-12T10:11:10.737Z,5.47
2017-11-12T10:13:37.627Z,5.55
2017-11-12T10:16:03.763Z,6.10
2017-11-12T10:18:29.912Z,4.87
2017-11-12T10:20:56.034Z,6.10
2017-11-12T10:23:22.201Z,5.90
2017-11-12T10:25:49.121Z,7.32
2017-11-12T10:28:15.298Z,6.25
2017-11-12T10:30:41.474Z,5.93
2017-11-12T10:33:09.593Z,5.60
2017-11-12T10:35:35.741Z,6.22
2017-11-12T10:38:02.000Z,6.68
2017-11-12T10:40:28.131Z,7.55
2017-11-12T10:42:54.295Z,7.10
2017-11-12T10:45:20.427Z,7.95
2017-11-12T10:47:46.566Z,7.85
2017-11-12T10:50:13.245Z,7.65
2017-11-12T10:52:39.534Z,8.60
2017-11-12T10:55:05.692Z,11.75
2017-11-12T10:57:31.813Z,12.00
2017-11-12T10:59:57.944Z,10.30
2017-11-12T11:02:27.474Z,9.90
2017-11-12T11:04:53.647Z,9.73
2017-11-12T11:07:19.790Z,8.38
2017-11-12T11:09:49.922Z,10.02
2017-11-12T11:12:16.091Z,10.27
2017-11-12T11:14:43.971Z,9.70
2017-11-12T11:17:10.172Z,7.85
2017-11-12T11:19:36.317Z,5.80
2017-11-12T11:22:02.497Z,6.22
2017-11-12T11:24:28.625Z,5.57
2017-11-12T11:26:54.831Z,6.10
2017-11-12T11:29:20.970Z,6.03
2017-11-12T11:31:47.104Z,7.55
2017-11-12T11:34:13.224Z,6.85
2017-11-12T11:36:39.355Z,6.82
2017-11-12T11:39:06.357Z,7.62
2017-11-12T11:41:32.532Z,7.75
2017-11-12T11:43:58.666Z,7.50
2017-11-12T11:46:24.778Z,7.75
2017-11-12T11:48:50.982Z,8.10
2017-11-12T11:51:17.860Z,9.10
2017-11-12T11:53:44.037Z,9.73
2017-11-12T11:56:10.195Z,10.45
2017-11-12T11:58:36.524Z,10.00
2017-11-12T12:01:03.058Z,10.20
2017-11-12T12:03:29.226Z,10.63
2017-11-12T12:05:55.373Z,10.88
2017-11-12T12:08:22.266Z,11.45
2017-11-12T12:10:49.132Z,12.50
2017-11-12T12:13:15.438Z,11.90
2017-11-12T12:15:42.402Z,12.13
2017-11-12T12:18:08.746Z,12.80
2017-11-12T12:20:34.865Z,12.50
2017-11-12T12:23:00.987Z,13.93
2017-11-12T12:25:27.116Z,14.82
2017-11-12T12:27:53.250Z,14.95
2017-11-12T12:30:19.495Z,16.35
2017-11-12T12:32:45.834Z,15.25
2017-11-12T12:35:12.014Z,16.80
2017-11-12T12:37:38.186Z,15.65
2017-11-12T12:40:04.332Z,15.45
2017-11-12T12:42:31.188Z,14.32
2017-11-12T12:44:58.054Z,12.60
2017-11-12T12:47:24.200Z,13.07
2017-11-12T12:49:50.477Z,13.73
2017-11-12T12:52:16.613Z,12.27
2017-11-12T12:54:42.784Z,14.45
2017-11-12T12:57:08.931Z,13.93
2017-11-12T12:59:35.161Z,14.98
2017-11-12T13:02:01.343Z,14.85
2017-11-12T13:04:28.278Z,15.20
2017-11-12T13:06:54.418Z,13.85
2017-11-12T13:09:20.564Z,13.43
2017-11-12T13:11:46.797Z,14.60
2017-11-12T13:14:12.930Z,14.05
2017-11-12T13:16:39.057Z,13.38
2017-11-12T13:19:05.235Z,13.32
2017-11-12T13:21:31.396Z,13.85
2017-11-12T13:23:58.739Z,13.52
2017-11-12T13:26:24.888Z,13.30
2017-11-12T13:28:51.080Z,13.05
2017-11-12T13:31:17.294Z,14.30
2017-11-12T13:33:44.187Z,13.13
2017-11-12T13:36:10.359Z,13.25
2017-11-12T13:38:36.507Z,12.43
2017-11-12T13:41:02.774Z,11.75
2017-11-12T13:43:28.981Z,12.98
2017-11-12T13:45:55.153Z,11.90
2017-11-12T13:48:21.278Z,12.20
2017-11-12T13:50:47.418Z,11.80
2017-11-12T13:53:13.811Z,12.93
2017-11-12T13:55:41.318Z,10.50
2017-11-12T13:58:07.496Z,12.10
2017-11-12T14:00:33.665Z,11.68
2017-11-12T14:02:59.973Z,11.12
2017-11-12T14:05:26.126Z,12.27
2017-11-12T14:07:52.469Z,10.40
2017-11-12T14:10:18.803Z,11.93
2017-11-12T14:12:45.246Z,11.82
2017-11-12T14:15:11.599Z,11.32
2017-11-12T14:17:37.949Z,13.13
2017-11-12T14:20:04.290Z,11.50
2017-11-12T14:22:30.622Z,12.73
2017-11-12T14:24:56.979Z,13.93
2017-11-12T14:27:23.330Z,11.80
2017-11-12T14:29:49.798Z,13.00
2017-11-12T14:32:16.168Z,13.13
2017-11-12T14:34:42.557Z,12.65
2017-11-12T14:37:09.262Z,12.80
2017-11-12T14:39:35.661Z,15.40
2017-11-12T14:42:02.009Z,13.40
2017-11-12T14:44:28.346Z,13.13
2017-11-12T14:46:54.681Z,14.23
2017-11-12T14:49:21.037Z,12.48
2017-11-12T14:51:47.397Z,11.77
2017-11-12T14:54:13.730Z,13.00
2017-11-12T14:56:40.088Z,13.02
2017-11-12T14:59:06.370Z,12.68
2017-11-12T15:01:33.455Z,13.93
2017-11-12T15:03:59.798Z,12.98
2017-11-12T15:06:26.235Z,12.80
2017-11-12T15:08:52.568Z,11.75
2017-11-12T15:11:20.417Z,12.35
2017-11-12T15:13:46.613Z,12.80
2017-11-12T15:16:12.926Z,13.00
2017-11-12T15:18:40.007Z,13.23
2017-11-12T15:21:06.241Z,13.35
2017-11-12T15:23:32.728Z,14.30
2017-11-12T15:25:59.088Z,13.50
2017-11-12T15:28:25.981Z,12.90
2017-11-12T15:30:52.323Z,13.60
2017-11-12T15:33:18.457Z,14.15
2017-11-12T15:35:44.892Z,13.40
2017-11-12T15:38:11.973Z,15.25
2017-11-12T15:40:38.099Z,18.90
2017-11-12T15:43:04.246Z,14.68
2017-11-12T15:45:30.384Z,13.10
2017-11-12T15:47:56.708Z,9.77
2017-11-12T15:50:23.574Z,10.50
2017-11-12T15:52:49.789Z,6.90
2017-11-12T15:55:16.688Z,6.55
2017-11-12T15:57:42.850Z,7.28
2017-11-12T16:00:09.218Z,7.35
2017-11-12T16:02:36.546Z,7.55
2017-11-12T16:05:02.957Z,5.60
2017-11-12T16:07:29.380Z,5.10
2017-11-12T16:09:55.748Z,5.50
2017-11-12T16:12:22.138Z,5.47
2017-11-12T16:14:48.669Z,5.80
2017-11-12T16:17:15.220Z,6.65
2017-11-12T16:19:42.748Z,8.32
2017-11-12T16:22:09.319Z,7.78
2017-11-12T16:24:35.779Z,8.35
2017-11-12T16:27:02.246Z,8.63
2017-11-12T16:29:29.622Z,8.30
2017-11-12T16:31:56.068Z,9.38
2017-11-12T16:34:22.718Z,7.45
2017-11-12T16:36:53.726Z,6.07
2017-11-12T16:39:20.713Z,5.82
2017-11-12T16:41:46.868Z,6.70
2017-11-12T16:44:13.191Z,8.00
2017-11-12T16:46:39.731Z,6.10
2017-11-12T16:49:06.316Z,6.15
2017-11-12T16:51:33.465Z,5.55
2017-11-12T16:53:59.783Z,5.75
2017-11-12T16:56:25.926Z,5.95
2017-11-12T16:58:52.089Z,5.10
2017-11-12T17:01:18.226Z,5.82
2017-11-12T17:03:44.459Z,7.40
2017-11-12T17:06:10.669Z,7.00
2017-11-12T17:08:36.802Z,8.15
2017-11-12T17:11:02.935Z,7.12
2017-11-12T17:13:29.103Z,8.00
2017-11-12T17:15:55.237Z,8.60
2017-11-12T17:18:21.655Z,8.55
2017-11-12T17:20:47.790Z,9.60
2017-11-12T17:23:14.183Z,9.48
2017-11-12T17:25:40.598Z,8.30
2017-11-12T17:28:06.980Z,7.18
2017-11-12T17:30:33.411Z,6.35
2017-11-12T17:32:59.873Z,6.57
2017-11-12T17:35:26.244Z,7.75
2017-11-12T17:37:52.656Z,8.70
2017-11-12T17:40:19.020Z,7.40
2017-11-12T17:42:45.547Z,9.32
2017-11-12T17:45:11.918Z,6.90
2017-11-12T17:47:38.274Z,7.35
2017-11-12T17:50:05.618Z,9.20
2017-11-12T17:52:31.860Z,7.35
2017-11-12T17:54:58.778Z,7.10
2017-11-12T17:57:25.102Z,7.60
2017-11-12T17:59:51.399Z,8.77
2017-11-12T18:02:17.562Z,7.87
2017-11-12T18:04:44.448Z,8.00
2017-11-12T18:07:10.630Z,7.70
2017-11-12T18:09:36.930Z,8.90
2017-11-12T18:12:03.132Z,7.57
2017-11-12T18:14:30.032Z,8.45
2017-11-12T18:16:56.206Z,7.78
2017-11-12T18:19:22.355Z,8.68
2017-11-12T18:21:49.294Z,7.85
2017-11-12T18:24:15.728Z,7.55
2017-11-12T18:26:42.927Z,7.90
2017-11-12T18:29:09.284Z,8.75
2017-11-12T18:31:35.662Z,8.90
2017-11-12T18:34:02.282Z,9.43
2017-11-12T18:36:28.657Z,10.40
2017-11-12T18:38:55.037Z,10.30
2017-11-12T18:41:21.457Z,10.32
2017-11-12T18:43:47.842Z,10.52
2017-11-12T18:46:14.281Z,11.57
2017-11-12T18:48:40.715Z,10.57
2017-11-12T18:51:07.954Z,10.35
2017-11-12T18:53:34.321Z,10.52
2017-11-12T18:56:00.734Z,10.63
2017-11-12T18:58:31.043Z,9.70
2017-11-12T19:00:57.388Z,8.15
2017-11-12T19:16:45.566Z,8.07
2017-11-12T19:19:13.590Z,7.95
2017-11-12T19:35:01.347Z,12.55
2017-11-12T19:37:27.705Z,10.60
2017-11-12T19:39:54.810Z,7.50
2017-11-12T19:42:21.116Z,7.90
2017-11-12T19:44:47.611Z,9.40
2017-11-12T19:47:14.198Z,8.10
2017-11-12T19:49:40.594Z,8.50
2017-11-12T19:52:07.095Z,8.85
2017-11-12T19:54:33.509Z,8.38
2017-11-12T19:57:00.040Z,8.25
2017-11-12T19:59:26.407Z,7.85
2017-11-12T20:01:53.526Z,7.72
2017-11-12T20:04:20.410Z,8.10
2017-11-12T20:06:47.918Z,8.18
2017-11-12T20:09:14.254Z,7.90
2017-11-12T20:11:41.373Z,7.87
2017-11-12T20:14:07.744Z,8.50
2017-11-12T20:16:34.178Z,7.18
2017-11-12T20:19:01.315Z,7.62
2017-11-12T20:21:27.711Z,7.68
2017-11-12T20:23:54.786Z,9.57
2017-11-12T20:26:21.130Z,7.72
2017-11-12T20:28:47.628Z,7.60
2017-11-12T20:31:14.034Z,7.15
2017-11-12T20:33:41.153Z,7.57
2017-11-12T20:36:07.544Z,7.62
2017-11-12T20:38:33.913Z,6.37
2017-11-12T20:41:00.303Z,7.37
2017-11-12T20:43:26.741Z,9.13
2017-11-12T20:45:53.162Z,8.48
2017-11-12T20:48:19.768Z,7.65
2017-11-12T20:50:46.226Z,7.25
2017-11-12T20:53:12.579Z,7.60
2017-11-12T20:55:38.973Z,8.15
2017-11-12T20:58:06.247Z,7.10
2017-11-12T21:00:42.752Z,6.72
2017-11-12T21:03:09.915Z,6.55
2017-11-12T21:05:37.715Z,5.90
2017-11-12T21:08:04.366Z,6.32
2017-11-12T21:10:31.502Z,6.75
2017-11-12T21:12:58.067Z,6.60
2017-11-12T21:15:24.504Z,6.60
2017-11-12T21:17:50.918Z,6.10
2017-11-12T21:33:52.055Z,5.95
2017-11-12T21:36:18.495Z,6.85
2017-11-12T21:38:45.901Z,5.60
2017-11-12T21:41:13.013Z,6.53
2017-11-12T21:43:39.497Z,8.15
2017-11-12T21:46:05.791Z,7.10
2017-11-12T21:48:32.139Z,6.57
2017-11-12T21:50:58.686Z,5.95
2017-11-12T21:53:24.980Z,5.95
2017-11-12T21:55:52.176Z,6.57
2017-11-12T21:58:20.713Z,6.70
2017-11-12T22:00:47.160Z,6.57
2017-11-12T22:03:13.536Z,6.20
2017-11-12T22:05:40.591Z,6.90
2017-11-12T22:08:07.040Z,5.78
2017-11-12T22:10:34.028Z,6.50
2017-11-12T22:13:00.432Z,5.62
2017-11-12T22:15:27.264Z,5.80
2017-11-12T22:17:54.405Z,6.60
2017-11-12T22:20:21.574Z,6.15
2017-11-12T22:22:47.911Z,6.10
2017-11-12T22:25:14.225Z,6.10
2017-11-12T22:27:42.722Z,6.20
2017-11-12T22:30:09.107Z,5.62
2017-11-12T22:32:37.262Z,6.15
2017-11-12T22:35:06.296Z,5.93
2017-11-12T22:37:34.891Z,5.20
2017-11-12T22:40:02.621Z,6.25
2017-11-12T22:42:28.961Z,5.32
2017-11-12T22:44:55.413Z,5.53
2017-11-12T22:47:21.991Z,6.20
2017-11-12T22:49:48.231Z,5.55
2017-11-12T22:52:14.610Z,6.80
2017-11-12T22:54:43.540Z,5.75
2017-11-12T22:57:10.079Z,5.82
2017-11-12T22:59:37.424Z,5.45
2017-11-12T23:02:03.757Z,5.53
2017-11-12T23:04:31.275Z,6.05
2017-11-12T23:07:02.809Z,5.28
2017-11-12T23:09:29.251Z,5.85
2017-11-12T23:11:55.843Z,5.75
2017-11-12T23:14:22.579Z,6.07
2017-11-12T23:16:51.015Z,5.30
2017-11-12T23:19:17.452Z,6.12
2017-11-12T23:21:44.894Z,5.90
2017-11-12T23:24:11.150Z,6.50
2017-11-12T23:26:37.546Z,5.60
2017-11-12T23:29:03.895Z,4.93
2017-11-12T23:31:31.168Z,5.40
2017-11-12T23:33:57.575Z,5.87
2017-11-12T23:36:23.877Z,5.00
2017-11-12T23:38:50.431Z,5.12
2017-11-12T23:41:16.995Z,4.90
2017-11-12T23:43:44.065Z,4.80
2017-11-12T23:46:11.688Z,4.78
2017-11-12T23:48:37.958Z,4.68
2017-11-12T23:51:04.179Z,4.45
2017-11-12T23:53:31.172Z,4.50
2017-11-12T23:55:57.543Z,4.97
2017-11-12T23:58:23.997Z,4.87
